sensor_id;sensor_type;location;lat;lon;timestamp;pressure;altitude;pressure_sealevel;temperature;humidity
38225;BME280;24025;48.138;11.428;2023-05-16T00:01:31;95128.88;;;10.25;93.74
38225;BME280;24025;48.138;11.428;2023-05-16T00:04:05;95134.16;;;10.21;93.60
38225;BME280;24025;48.138;11.428;2023-05-16T00:06:37;95127.31;;;10.20;93.49
38225;BME280;24025;48.138;11.428;2023-05-16T00:09:08;95128.84;;;10.21;93.83
38225;BME280;24025;48.138;11.428;2023-05-16T00:11:40;95132.69;;;10.24;93.97
38225;BME280;24025;48.138;11.428;2023-05-16T00:14:12;95130.84;;;10.28;93.65
38225;BME280;24025;48.138;11.428;2023-05-16T00:16:45;95133.13;;;10.26;93.50
38225;BME280;24025;48.138;11.428;2023-05-16T00:19:19;95127.78;;;10.26;93.43
38225;BME280;24025;48.138;11.428;2023-05-16T00:21:51;95123.50;;;10.21;93.42
38225;BME280;24025;48.138;11.428;2023-05-16T00:24:23;95121.63;;;10.21;93.36
38225;BME280;24025;48.138;11.428;2023-05-16T00:26:55;95119.78;;;10.26;93.17
38225;BME280;24025;48.138;11.428;2023-05-16T00:29:26;95124.38;;;10.29;93.16
38225;BME280;24025;48.138;11.428;2023-05-16T00:31:58;95111.06;;;10.32;92.97
38225;BME280;24025;48.138;11.428;2023-05-16T00:34:29;95110.72;;;10.34;92.74
38225;BME280;24025;48.138;11.428;2023-05-16T00:37:02;95104.25;;;10.38;92.56
38225;BME280;24025;48.138;11.428;2023-05-16T00:39:34;95108.81;;;10.38;91.99
38225;BME280;24025;48.138;11.428;2023-05-16T00:42:06;95107.31;;;10.40;92.37
38225;BME280;24025;48.138;11.428;2023-05-16T00:44:37;95105.41;;;10.41;92.20
38225;BME280;24025;48.138;11.428;2023-05-16T00:47:09;95111.16;;;10.43;92.14
38225;BME280;24025;48.138;11.428;2023-05-16T00:49:41;95111.16;;;10.43;92.12
38225;BME280;24025;48.138;11.428;2023-05-16T00:52:14;95111.53;;;10.45;92.23
38225;BME280;24025;48.138;11.428;2023-05-16T00:54:46;95110.03;;;10.47;92.23
38225;BME280;24025;48.138;11.428;2023-05-16T00:57:18;95110.78;;;10.48;92.01
38225;BME280;24025;48.138;11.428;2023-05-16T00:59:53;95103.56;;;10.48;91.92
38225;BME280;24025;48.138;11.428;2023-05-16T01:02:25;95111.56;;;10.48;91.92
38225;BME280;24025;48.138;11.428;2023-05-16T01:05:00;95113.06;;;10.49;91.85
38225;BME280;24025;48.138;11.428;2023-05-16T01:07:32;95116.50;;;10.50;91.92
38225;BME280;24025;48.138;11.428;2023-05-16T01:10:06;95113.84;;;10.50;92.05
38225;BME280;24025;48.138;11.428;2023-05-16T01:15:43;95111.19;;;10.50;91.82
38225;BME280;24025;48.138;11.428;2023-05-16T01:18:34;95105.84;;;10.50;91.96
38225;BME280;24025;48.138;11.428;2023-05-16T01:21:11;95107.38;;;10.51;91.70
38225;BME280;24025;48.138;11.428;2023-05-16T01:24:05;95105.09;;;10.49;91.72
38225;BME280;24025;48.138;11.428;2023-05-16T01:26:42;95097.09;;;10.49;91.98
38225;BME280;24025;48.138;11.428;2023-05-16T01:29:15;95101.28;;;10.50;91.76
38225;BME280;24025;48.138;11.428;2023-05-16T01:31:47;95097.09;;;10.49;91.83
38225;BME280;24025;48.138;11.428;2023-05-16T01:34:19;95097.50;;;10.52;91.34
38225;BME280;24025;48.138;11.428;2023-05-16T01:37:08;95096.31;;;10.45;91.57
38225;BME280;24025;48.138;11.428;2023-05-16T01:39:46;95094.75;;;10.41;91.74
38225;BME280;24025;48.138;11.428;2023-05-16T01:42:26;95089.03;;;10.39;92.10
38225;BME280;24025;48.138;11.428;2023-05-16T01:45:09;95086.34;;;10.39;92.52
38225;BME280;24025;48.138;11.428;2023-05-16T01:47:48;95087.13;;;10.39;92.60
38225;BME280;24025;48.138;11.428;2023-05-16T01:50:24;95089.41;;;10.41;92.71
38225;BME280;24025;48.138;11.428;2023-05-16T01:53:00;95092.47;;;10.39;93.04
38225;BME280;24025;48.138;11.428;2023-05-16T01:55:47;95087.13;;;10.39;92.83
38225;BME280;24025;48.138;11.428;2023-05-16T01:58:22;95082.16;;;10.38;92.85
38225;BME280;24025;48.138;11.428;2023-05-16T02:01:03;95085.22;;;10.36;92.69
38225;BME280;24025;48.138;11.428;2023-05-16T02:03:35;95078.75;;;10.37;92.67
38225;BME280;24025;48.138;11.428;2023-05-16T02:06:07;95085.94;;;10.33;92.64
38225;BME280;24025;48.138;11.428;2023-05-16T02:08:38;95092.81;;;10.34;92.61
38225;BME280;24025;48.138;11.428;2023-05-16T02:11:10;95083.66;;;10.32;92.21
38225;BME280;24025;48.138;11.428;2023-05-16T02:13:42;95085.91;;;10.30;91.92
38225;BME280;24025;48.138;11.428;2023-05-16T02:16:13;95083.63;;;10.28;91.81
38225;BME280;24025;48.138;11.428;2023-05-16T02:18:45;95090.09;;;10.27;91.97
38225;BME280;24025;48.138;11.428;2023-05-16T02:21:17;95082.47;;;10.26;91.79
38225;BME280;24025;48.138;11.428;2023-05-16T02:23:48;95090.06;;;10.24;92.02
38225;BME280;24025;48.138;11.428;2023-05-16T02:26:20;95088.53;;;10.23;91.60
38225;BME280;24025;48.138;11.428;2023-05-16T02:28:52;95085.09;;;10.22;91.25
38225;BME280;24025;48.138;11.428;2023-05-16T02:31:28;95090.78;;;10.20;91.73
38225;BME280;24025;48.138;11.428;2023-05-16T02:34:01;95094.59;;;10.19;91.41
38225;BME280;24025;48.138;11.428;2023-05-16T02:36:33;95094.59;;;10.19;91.37
38225;BME280;24025;48.138;11.428;2023-05-16T02:39:06;95098.00;;;10.20;91.36
38225;BME280;24025;48.138;11.428;2023-05-16T02:41:40;95090.00;;;10.16;91.20
38225;BME280;24025;48.138;11.428;2023-05-16T02:44:12;95093.38;;;10.10;91.12
38225;BME280;24025;48.138;11.428;2023-05-16T02:46:43;95096.66;;;9.96;91.58
38225;BME280;24025;48.138;11.428;2023-05-16T02:49:15;95098.16;;;9.90;92.11
38225;BME280;24025;48.138;11.428;2023-05-16T02:51:47;95094.31;;;9.87;92.88
38225;BME280;24025;48.138;11.428;2023-05-16T02:54:18;95095.06;;;9.84;92.81
38225;BME280;24025;48.138;11.428;2023-05-16T02:56:50;95090.88;;;9.87;92.84
38225;BME280;24025;48.138;11.428;2023-05-16T02:59:22;95088.22;;;9.87;92.78
38225;BME280;24025;48.138;11.428;2023-05-16T03:01:53;95094.28;;;9.84;92.44
38225;BME280;24025;48.138;11.428;2023-05-16T03:04:27;95093.16;;;9.81;92.84
38225;BME280;24025;48.138;11.428;2023-05-16T03:06:59;95089.34;;;9.82;93.09
38225;BME280;24025;48.138;11.428;2023-05-16T03:09:30;95092.41;;;9.88;93.71
38225;BME280;24025;48.138;11.428;2023-05-16T03:12:02;95090.94;;;9.90;92.90
38225;BME280;24025;48.138;11.428;2023-05-16T03:14:34;95084.44;;;9.88;92.67
38225;BME280;24025;48.138;11.428;2023-05-16T03:17:06;95085.19;;;9.88;92.69
38225;BME280;24025;48.138;11.428;2023-05-16T03:19:37;95087.09;;;9.88;92.56
38225;BME280;24025;48.138;11.428;2023-05-16T03:22:08;95084.03;;;9.86;92.58
38225;BME280;24025;48.138;11.428;2023-05-16T03:24:40;95091.28;;;9.89;92.96
38225;BME280;24025;48.138;11.428;2023-05-16T03:27:11;95094.75;;;9.93;92.84
38225;BME280;24025;48.138;11.428;2023-05-16T03:29:43;95092.09;;;9.97;93.18
38225;BME280;24025;48.138;11.428;2023-05-16T03:32:14;95086.06;;;10.00;92.86
38225;BME280;24025;48.138;11.428;2023-05-16T03:34:45;95087.97;;;9.99;92.22
38225;BME280;24025;48.138;11.428;2023-05-16T03:37:17;95093.69;;;10.05;92.53
38225;BME280;24025;48.138;11.428;2023-05-16T03:39:48;95097.53;;;10.07;92.10
38225;BME280;24025;48.138;11.428;2023-05-16T03:42:20;95088.75;;;10.07;92.38
38225;BME280;24025;48.138;11.428;2023-05-16T03:44:51;95089.94;;;10.09;91.76
38225;BME280;24025;48.138;11.428;2023-05-16T03:47:23;95085.38;;;10.10;91.88
38225;BME280;24025;48.138;11.428;2023-05-16T03:49:54;95093.00;;;10.11;92.23
38225;BME280;24025;48.138;11.428;2023-05-16T03:52:26;95089.19;;;10.12;92.23
38225;BME280;24025;48.138;11.428;2023-05-16T03:54:59;95085.00;;;10.11;92.14
38225;BME280;24025;48.138;11.428;2023-05-16T03:57:33;95091.09;;;10.08;91.78
38225;BME280;24025;48.138;11.428;2023-05-16T04:00:05;95086.47;;;10.05;91.20
38225;BME280;24025;48.138;11.428;2023-05-16T04:02:39;95090.31;;;10.08;91.42
38225;BME280;24025;48.138;11.428;2023-05-16T04:05:11;95095.22;;;10.06;91.17
38225;BME280;24025;48.138;11.428;2023-05-16T04:07:44;95088.34;;;10.01;91.20
38225;BME280;24025;48.138;11.428;2023-05-16T04:10:15;95083.41;;;10.03;91.16
38225;BME280;24025;48.138;11.428;2023-05-16T04:12:48;95088.72;;;10.00;90.49
38225;BME280;24025;48.138;11.428;2023-05-16T04:15:19;95081.44;;;9.93;91.01
38225;BME280;24025;48.138;11.428;2023-05-16T04:17:51;95083.28;;;9.89;90.79
38225;BME280;24025;48.138;11.428;2023-05-16T04:20:22;95084.50;;;9.95;91.24
38225;BME280;24025;48.138;11.428;2023-05-16T04:22:54;95084.16;;;10.00;91.31
38225;BME280;24025;48.138;11.428;2023-05-16T04:25:25;95081.50;;;10.00;90.57
38225;BME280;24025;48.138;11.428;2023-05-16T04:27:57;95081.88;;;10.02;90.49
38225;BME280;24025;48.138;11.428;2023-05-16T04:30:28;95083.09;;;10.08;91.06
38225;BME280;24025;48.138;11.428;2023-05-16T04:33:00;95092.22;;;10.07;89.98
38225;BME280;24025;48.138;11.428;2023-05-16T04:35:31;95091.84;;;10.09;89.79
38225;BME280;24025;48.138;11.428;2023-05-16T04:38:03;95086.16;;;10.14;89.81
38225;BME280;24025;48.138;11.428;2023-05-16T04:40:35;95088.50;;;10.19;89.90
38225;BME280;24025;48.138;11.428;2023-05-16T04:43:06;95091.19;;;10.23;89.74
38225;BME280;24025;48.138;11.428;2023-05-16T04:45:39;95087.44;;;10.27;89.45
38225;BME280;24025;48.138;11.428;2023-05-16T04:48:14;95094.69;;;10.30;89.18
38225;BME280;24025;48.138;11.428;2023-05-16T04:50:46;95092.41;;;10.32;89.53
38225;BME280;24025;48.138;11.428;2023-05-16T04:53:17;95088.63;;;10.37;89.18
38225;BME280;24025;48.138;11.428;2023-05-16T04:55:48;95094.34;;;10.39;89.09
38225;BME280;24025;48.138;11.428;2023-05-16T04:58:20;95100.50;;;10.43;88.98
38225;BME280;24025;48.138;11.428;2023-05-16T05:00:54;95095.88;;;10.36;89.09
38225;BME280;24025;48.138;11.428;2023-05-16T05:03:26;95096.97;;;10.32;89.11
38225;BME280;24025;48.138;11.428;2023-05-16T05:05:58;95100.78;;;10.31;88.99
38225;BME280;24025;48.138;11.428;2023-05-16T05:08:29;95098.00;;;10.20;89.40
38225;BME280;24025;48.138;11.428;2023-05-16T05:11:01;95100.59;;;10.09;90.70
38225;BME280;24025;48.138;11.428;2023-05-16T05:13:32;95096.47;;;10.19;91.15
38225;BME280;24025;48.138;11.428;2023-05-16T05:16:04;95099.22;;;10.26;90.60
38225;BME280;24025;48.138;11.428;2023-05-16T05:18:37;95100.78;;;10.31;90.19
38225;BME280;24025;48.138;11.428;2023-05-16T05:21:08;95101.16;;;10.33;90.11
38225;BME280;24025;48.138;11.428;2023-05-16T05:23:40;95098.09;;;10.31;89.87
38225;BME280;24025;48.138;11.428;2023-05-16T05:26:11;95102.28;;;10.32;89.49
38225;BME280;24025;48.138;11.428;2023-05-16T05:28:42;95104.94;;;10.28;89.67
38225;BME280;24025;48.138;11.428;2023-05-16T05:31:27;95099.25;;;10.33;89.28
38225;BME280;24025;48.138;11.428;2023-05-16T05:33:59;95104.63;;;10.37;88.40
38225;BME280;24025;48.138;11.428;2023-05-16T05:36:31;95101.53;;;10.28;89.01
38225;BME280;24025;48.138;11.428;2023-05-16T05:39:03;95106.88;;;10.31;88.21
38225;BME280;24025;48.138;11.428;2023-05-16T05:41:34;95099.19;;;10.23;88.74
38225;BME280;24025;48.138;11.428;2023-05-16T05:44:06;95096.91;;;10.25;89.05
38225;BME280;24025;48.138;11.428;2023-05-16T05:46:41;95098.84;;;10.28;89.03
38225;BME280;24025;48.138;11.428;2023-05-16T05:49:13;95096.25;;;10.35;88.84
38225;BME280;24025;48.138;11.428;2023-05-16T05:51:44;95091.31;;;10.40;88.50
38225;BME280;24025;48.138;11.428;2023-05-16T05:54:17;95096.69;;;10.47;88.23
38225;BME280;24025;48.138;11.428;2023-05-16T05:56:48;95091.31;;;10.40;89.38
38225;BME280;24025;48.138;11.428;2023-05-16T05:59:20;95092.94;;;10.56;89.16
38225;BME280;24025;48.138;11.428;2023-05-16T06:01:51;95086.75;;;10.41;89.34
38225;BME280;24025;48.138;11.428;2023-05-16T06:04:23;95087.16;;;10.43;89.58
38225;BME280;24025;48.138;11.428;2023-05-16T06:06:54;95086.41;;;10.46;89.59
38225;BME280;24025;48.138;11.428;2023-05-16T06:09:26;95081.84;;;10.46;90.11
38225;BME280;24025;48.138;11.428;2023-05-16T06:11:57;95086.47;;;10.53;89.61
38225;BME280;24025;48.138;11.428;2023-05-16T06:14:30;95085.66;;;10.49;89.49
38225;BME280;24025;48.138;11.428;2023-05-16T06:17:01;95079.91;;;10.40;89.16
38225;BME280;24025;48.138;11.428;2023-05-16T06:19:33;95082.28;;;10.56;89.85
38225;BME280;24025;48.138;11.428;2023-05-16T06:22:06;95085.00;;;10.66;89.45
38225;BME280;24025;48.138;11.428;2023-05-16T06:24:37;95082.75;;;10.75;88.63
38225;BME280;24025;48.138;11.428;2023-05-16T06:27:09;95087.28;;;10.64;88.10
38225;BME280;24025;48.138;11.428;2023-05-16T06:29:40;95080.38;;;10.60;88.29
38225;BME280;24025;48.138;11.428;2023-05-16T06:32:11;95083.03;;;10.56;88.01
38225;BME280;24025;48.138;11.428;2023-05-16T06:34:43;95086.84;;;10.55;88.55
38225;BME280;24025;48.138;11.428;2023-05-16T06:37:15;95088.38;;;10.56;88.71
38225;BME280;24025;48.138;11.428;2023-05-16T06:39:47;95085.72;;;10.60;89.35
38225;BME280;24025;48.138;11.428;2023-05-16T06:42:18;95086.13;;;10.62;89.32
38225;BME280;24025;48.138;11.428;2023-05-16T06:44:50;95094.91;;;10.66;89.32
38225;BME280;24025;48.138;11.428;2023-05-16T06:47:22;95094.19;;;10.76;88.77
38225;BME280;24025;48.138;11.428;2023-05-16T06:49:54;95093.84;;;10.81;88.59
38225;BME280;24025;48.138;11.428;2023-05-16T06:52:25;95090.03;;;10.86;87.82
38225;BME280;24025;48.138;11.428;2023-05-16T06:54:57;95086.94;;;10.76;87.88
38225;BME280;24025;48.138;11.428;2023-05-16T06:57:28;95091.13;;;10.77;87.29
38225;BME280;24025;48.138;11.428;2023-05-16T07:00:00;95095.88;;;11.05;87.59
38225;BME280;24025;48.138;11.428;2023-05-16T07:02:32;95097.81;;;11.16;86.17
38225;BME280;24025;48.138;11.428;2023-05-16T07:05:03;95093.59;;;11.15;84.80
38225;BME280;24025;48.138;11.428;2023-05-16T07:07:35;95092.84;;;11.21;84.43
38225;BME280;24025;48.138;11.428;2023-05-16T07:10:06;95095.19;;;11.33;84.57
38225;BME280;24025;48.138;11.428;2023-05-16T07:12:40;95092.53;;;11.44;84.01
38225;BME280;24025;48.138;11.428;2023-05-16T07:15:11;95090.63;;;11.48;83.98
38225;BME280;24025;48.138;11.428;2023-05-16T07:17:43;95088.75;;;11.52;83.26
38225;BME280;24025;48.138;11.428;2023-05-16T07:20:15;95082.72;;;11.80;83.14
38225;BME280;24025;48.138;11.428;2023-05-16T07:22:46;95096.47;;;11.97;81.08
38225;BME280;24025;48.138;11.428;2023-05-16T07:25:17;95088.09;;;12.02;80.31
38225;BME280;24025;48.138;11.428;2023-05-16T07:27:49;95097.63;;;12.06;80.62
38225;BME280;24025;48.138;11.428;2023-05-16T07:30:21;95101.06;;;12.14;80.13
38225;BME280;24025;48.138;11.428;2023-05-16T07:32:52;95096.09;;;12.23;80.39
38225;BME280;24025;48.138;11.428;2023-05-16T07:35:24;95092.63;;;12.26;79.71
38225;BME280;24025;48.138;11.428;2023-05-16T07:37:56;95107.53;;;12.24;79.59
38225;BME280;24025;48.138;11.428;2023-05-16T07:40:27;95101.44;;;12.12;79.15
38225;BME280;24025;48.138;11.428;2023-05-16T07:42:59;95100.28;;;12.17;79.47
38225;BME280;24025;48.138;11.428;2023-05-16T07:45:32;95104.88;;;11.99;79.80
38225;BME280;24025;48.138;11.428;2023-05-16T07:48:04;95100.66;;;11.80;81.65
38225;BME280;24025;48.138;11.428;2023-05-16T07:50:35;95109.00;;;11.68;81.34
38225;BME280;24025;48.138;11.428;2023-05-16T07:53:07;95117.03;;;11.68;81.96
38225;BME280;24025;48.138;11.428;2023-05-16T07:55:39;95118.50;;;11.51;82.42
38225;BME280;24025;48.138;11.428;2023-05-16T07:58:10;95119.94;;;11.30;83.85
38225;BME280;24025;48.138;11.428;2023-05-16T08:00:42;95111.88;;;11.05;85.20
38225;BME280;24025;48.138;11.428;2023-05-16T08:03:13;95113.06;;;11.15;85.88
38225;BME280;24025;48.138;11.428;2023-05-16T08:05:45;95117.63;;;11.15;86.66
38225;BME280;24025;48.138;11.428;2023-05-16T08:08:19;95116.09;;;11.17;86.94
38225;BME280;24025;48.138;11.428;2023-05-16T08:10:50;95129.47;;;11.24;87.11
38225;BME280;24025;48.138;11.428;2023-05-16T08:13:22;95140.94;;;11.35;87.38
38225;BME280;24025;48.138;11.428;2023-05-16T08:15:53;95134.13;;;11.42;87.71
38225;BME280;24025;48.138;11.428;2023-05-16T08:18:24;95137.56;;;11.49;88.99
38225;BME280;24025;48.138;11.428;2023-05-16T08:20:56;95133.38;;;11.55;89.04
38225;BME280;24025;48.138;11.428;2023-05-16T08:23:27;95137.56;;;11.53;87.36
38225;BME280;24025;48.138;11.428;2023-05-16T08:25:59;95132.25;;;11.49;86.58
38225;BME280;24025;48.138;11.428;2023-05-16T08:28:31;95130.69;;;11.48;88.62
38225;BME280;24025;48.138;11.428;2023-05-16T08:31:03;95136.03;;;11.45;87.78
38225;BME280;24025;48.138;11.428;2023-05-16T08:33:35;95136.38;;;11.32;87.66
38225;BME280;24025;48.138;11.428;2023-05-16T08:36:08;95132.50;;;11.16;87.91
38225;BME280;24025;48.138;11.428;2023-05-16T08:38:39;95132.06;;;11.06;89.43
38225;BME280;24025;48.138;11.428;2023-05-16T08:41:11;95137.81;;;11.12;90.87
38225;BME280;24025;48.138;11.428;2023-05-16T08:43:42;95138.13;;;11.00;91.57
38225;BME280;24025;48.138;11.428;2023-05-16T08:46:17;95135.13;;;11.05;92.09
38225;BME280;24025;48.138;11.428;2023-05-16T08:48:52;95139.31;;;11.06;92.47
38225;BME280;24025;48.138;11.428;2023-05-16T08:51:25;95142.31;;;10.97;92.98
38225;BME280;24025;48.138;11.428;2023-05-16T08:54:10;95148.84;;;11.07;92.70
38225;BME280;24025;48.138;11.428;2023-05-16T08:56:44;95148.84;;;11.11;92.77
38225;BME280;24025;48.138;11.428;2023-05-16T08:59:16;95142.38;;;11.04;93.54
38225;BME280;24025;48.138;11.428;2023-05-16T09:01:48;95140.41;;;10.98;93.42
38225;BME280;24025;48.138;11.428;2023-05-16T09:04:19;95132.44;;;11.05;94.26
38225;BME280;24025;48.138;11.428;2023-05-16T09:06:51;95130.56;;;11.13;94.30
38225;BME280;24025;48.138;11.428;2023-05-16T09:09:23;95135.56;;;11.21;95.11
38225;BME280;24025;48.138;11.428;2023-05-16T09:11:55;95124.84;;;11.11;95.37
38225;BME280;24025;48.138;11.428;2023-05-16T09:14:27;95119.56;;;11.25;95.45
38225;BME280;24025;48.138;11.428;2023-05-16T09:17:02;95113.91;;;11.48;96.66
38225;BME280;24025;48.138;11.428;2023-05-16T09:19:38;95117.75;;;11.64;96.16
38225;BME280;24025;48.138;11.428;2023-05-16T09:22:14;95120.88;;;11.88;95.07
38225;BME280;24025;48.138;11.428;2023-05-16T09:24:45;95122.44;;;12.10;94.13
38225;BME280;24025;48.138;11.428;2023-05-16T09:27:17;95125.88;;;12.22;90.40
38225;BME280;24025;48.138;11.428;2023-05-16T09:29:49;95126.66;;;12.29;88.00
38225;BME280;24025;48.138;11.428;2023-05-16T09:32:23;95127.03;;;12.21;86.99
38225;BME280;24025;48.138;11.428;2023-05-16T09:34:55;95126.25;;;12.24;89.54
38225;BME280;24025;48.138;11.428;2023-05-16T09:37:29;95137.31;;;12.33;88.59
38225;BME280;24025;48.138;11.428;2023-05-16T09:40:02;95128.91;;;12.16;87.91
38225;BME280;24025;48.138;11.428;2023-05-16T09:42:33;95128.16;;;12.16;90.43
38225;BME280;24025;48.138;11.428;2023-05-16T09:45:05;95119.00;;;12.17;90.18
38225;BME280;24025;48.138;11.428;2023-05-16T09:47:36;95117.09;;;11.96;89.44
38225;BME280;24025;48.138;11.428;2023-05-16T09:50:16;95123.19;;;12.18;91.13
38225;BME280;24025;48.138;11.428;2023-05-16T09:52:49;95117.50;;;12.19;91.46
38225;BME280;24025;48.138;11.428;2023-05-16T09:55:21;95127.03;;;12.03;90.51
38225;BME280;24025;48.138;11.428;2023-05-16T09:57:53;95125.88;;;12.04;89.52
38225;BME280;24025;48.138;11.428;2023-05-16T10:00:28;95119.72;;;11.93;90.26
38225;BME280;24025;48.138;11.428;2023-05-16T10:03:01;95125.06;;;11.82;92.65
38225;BME280;24025;48.138;11.428;2023-05-16T10:05:36;95130.78;;;11.77;93.12
38225;BME280;24025;48.138;11.428;2023-05-16T10:08:10;95129.69;;;11.85;94.76
38225;BME280;24025;48.138;11.428;2023-05-16T10:10:42;95132.72;;;11.87;94.12
38225;BME280;24025;48.138;11.428;2023-05-16T10:13:13;95131.50;;;11.74;94.78
38225;BME280;24025;48.138;11.428;2023-05-16T10:15:46;95128.44;;;11.64;94.21
38225;BME280;24025;48.138;11.428;2023-05-16T10:18:19;95126.50;;;11.47;94.42
38225;BME280;24025;48.138;11.428;2023-05-16T10:20:52;95137.16;;;11.44;94.35
38225;BME280;24025;48.138;11.428;2023-05-16T10:23:24;95138.72;;;11.52;94.95
38225;BME280;24025;48.138;11.428;2023-05-16T10:25:57;95147.44;;;11.34;96.41
38225;BME280;24025;48.138;11.428;2023-05-16T10:28:29;95142.09;;;11.34;98.71
38225;BME280;24025;48.138;11.428;2023-05-16T10:31:01;95147.41;;;11.24;98.02
38225;BME280;24025;48.138;11.428;2023-05-16T10:33:33;95145.47;;;11.21;98.17
38225;BME280;24025;48.138;11.428;2023-05-16T10:36:08;95146.22;;;11.14;100.00
38225;BME280;24025;48.138;11.428;2023-05-16T10:38:40;95150.47;;;11.29;99.53
38225;BME280;24025;48.138;11.428;2023-05-16T10:41:13;95155.06;;;11.32;98.46
38225;BME280;24025;48.138;11.428;2023-05-16T10:43:46;95150.88;;;11.35;97.46
38225;BME280;24025;48.138;11.428;2023-05-16T10:46:26;95153.59;;;11.49;98.00
38225;BME280;24025;48.138;11.428;2023-05-16T10:48:59;95152.03;;;11.48;97.47
38225;BME280;24025;48.138;11.428;2023-05-16T10:54:42;95153.56;;;11.46;98.76
38225;BME280;24025;48.138;11.428;2023-05-16T10:57:22;95155.50;;;11.49;99.26
38225;BME280;24025;48.138;11.428;2023-05-16T10:59:53;95154.38;;;11.53;99.69
38225;BME280;24025;48.138;11.428;2023-05-16T11:02:32;95149.03;;;11.64;100.00
38225;BME280;24025;48.138;11.428;2023-05-16T11:05:05;95150.94;;;11.63;99.62
38225;BME280;24025;48.138;11.428;2023-05-16T11:07:38;95157.84;;;11.72;99.47
38225;BME280;24025;48.138;11.428;2023-05-16T11:10:13;95154.41;;;11.71;98.38
38225;BME280;24025;48.138;11.428;2023-05-16T11:12:49;95150.53;;;11.54;100.00
38225;BME280;24025;48.138;11.428;2023-05-16T11:18:02;95137.81;;;11.12;100.00
38225;BME280;24025;48.138;11.428;2023-05-16T11:20:36;95140.13;;;11.21;100.00
38225;BME280;24025;48.138;11.428;2023-05-16T11:25:46;95139.78;;;11.22;100.00
38225;BME280;24025;48.138;11.428;2023-05-16T11:28:23;95137.91;;;11.37;100.00
38225;BME280;24025;48.138;11.428;2023-05-16T11:30:56;95145.19;;;11.47;100.00
38225;BME280;24025;48.138;11.428;2023-05-16T11:33:29;95155.53;;;11.59;100.00
38225;BME280;24025;48.138;11.428;2023-05-16T11:36:02;95154.03;;;11.69;100.00
38225;BME280;24025;48.138;11.428;2023-05-16T11:38:46;95152.91;;;11.77;100.00
38225;BME280;24025;48.138;11.428;2023-05-16T11:41:17;95155.97;;;11.83;99.93
38225;BME280;24025;48.138;11.428;2023-05-16T11:43:49;95151.03;;;11.88;99.53
38225;BME280;24025;48.138;11.428;2023-05-16T11:46:20;95154.84;;;11.91;99.59
38225;BME280;24025;48.138;11.428;2023-05-16T11:48:53;95158.28;;;11.88;100.00
38225;BME280;24025;48.138;11.428;2023-05-16T11:51:26;95155.63;;;11.84;99.87
38225;BME280;24025;48.138;11.428;2023-05-16T11:54:00;95140.28;;;11.67;99.78
38225;BME280;24025;48.138;11.428;2023-05-16T11:56:36;95131.41;;;11.34;100.00
38225;BME280;24025;48.138;11.428;2023-05-16T11:59:08;95130.16;;;11.11;100.00
38225;BME280;24025;48.138;11.428;2023-05-16T12:01:41;95130.22;;;11.18;100.00
38225;BME280;24025;48.138;11.428;2023-05-16T12:04:13;95123.44;;;11.42;100.00
38225;BME280;24025;48.138;11.428;2023-05-16T12:06:56;95126.53;;;11.58;100.00
38225;BME280;24025;48.138;11.428;2023-05-16T12:09:31;95120.88;;;11.81;100.00
38225;BME280;24025;48.138;11.428;2023-05-16T12:12:04;95116.31;;;12.10;100.00
38225;BME280;24025;48.138;11.428;2023-05-16T12:14:40;95116.34;;;12.38;100.00
38225;BME280;24025;48.138;11.428;2023-05-16T12:17:12;95124.34;;;12.49;97.26
38225;BME280;24025;48.138;11.428;2023-05-16T12:19:45;95121.63;;;12.70;93.53
38225;BME280;24025;48.138;11.428;2023-05-16T12:22:16;95119.31;;;12.90;93.46
38225;BME280;24025;48.138;11.428;2023-05-16T12:24:49;95116.16;;;13.13;89.61
38225;BME280;24025;48.138;11.428;2023-05-16T12:27:21;95117.22;;;13.44;89.95
38225;BME280;24025;48.138;11.428;2023-05-16T12:29:53;95123.19;;;13.70;88.30
38225;BME280;24025;48.138;11.428;2023-05-16T12:32:29;95118.63;;;13.63;85.71
38225;BME280;24025;48.138;11.428;2023-05-16T12:35:01;95115.59;;;13.57;81.27
38225;BME280;24025;48.138;11.428;2023-05-16T12:37:33;95113.91;;;13.85;86.72
38225;BME280;24025;48.138;11.428;2023-05-16T12:40:05;95124.13;;;14.01;82.54
38225;BME280;24025;48.138;11.428;2023-05-16T12:42:37;95123.81;;;13.92;85.96
38225;BME280;24025;48.138;11.428;2023-05-16T12:45:15;95117.88;;;13.59;85.92
38225;BME280;24025;48.138;11.428;2023-05-16T12:47:50;95113.50;;;13.86;86.29
38225;BME280;24025;48.138;11.428;2023-05-16T12:50:21;95113.19;;;13.77;83.87
38225;BME280;24025;48.138;11.428;2023-05-16T12:52:53;95109.28;;;13.89;86.89
38225;BME280;24025;48.138;11.428;2023-05-16T12:55:25;95112.03;;;13.82;86.74
38225;BME280;24025;48.138;11.428;2023-05-16T12:57:57;95101.78;;;14.18;87.42
38225;BME280;24025;48.138;11.428;2023-05-16T13:00:31;95100.63;;;14.19;84.72
38225;BME280;24025;48.138;11.428;2023-05-16T13:03:04;95101.84;;;14.11;84.12
38225;BME280;24025;48.138;11.428;2023-05-16T13:05:36;95105.34;;;14.04;84.85
38225;BME280;24025;48.138;11.428;2023-05-16T13:08:08;95097.53;;;14.24;84.66
38225;BME280;24025;48.138;11.428;2023-05-16T13:10:39;95101.22;;;14.82;82.71
38225;BME280;24025;48.138;11.428;2023-05-16T13:13:11;95100.44;;;15.19;82.91
38225;BME280;24025;48.138;11.428;2023-05-16T13:15:59;95104.72;;;15.47;78.75
38225;BME280;24025;48.138;11.428;2023-05-16T13:18:30;95101.34;;;15.70;79.33
38225;BME280;24025;48.138;11.428;2023-05-16T13:21:02;95105.16;;;15.12;80.64
38225;BME280;24025;48.138;11.428;2023-05-16T13:23:36;95119.72;;;14.77;83.57
38225;BME280;24025;48.138;11.428;2023-05-16T13:26:08;95115.47;;;14.31;88.50
38225;BME280;24025;48.138;11.428;2023-05-16T13:28:39;95120.06;;;13.82;79.53
38225;BME280;24025;48.138;11.428;2023-05-16T13:31:11;95127.88;;;13.51;75.94